sensor_id;sensor_type;location;lat;lon;timestamp;P1;durP1;ratioP1;P2;durP2;ratioP2
30571;SDS011;17348;50.948;10.696;2023-05-15T00:01:03;11.55;;;7.95;;
30571;SDS011;17348;50.948;10.696;2023-05-15T00:04:07;13.73;;;7.38;;
30571;SDS011;17348;50.948;10.696;2023-05-15T00:07:09;11.55;;;7.72;;
30571;SDS011;17348;50.948;10.696;2023-05-15T00:10:11;13.13;;;7.00;;
30571;SDS011;17348;50.948;10.696;2023-05-15T00:13:15;9.65;;;6.57;;
30571;SDS011;17348;50.948;10.696;2023-05-15T00:16:17;13.52;;;6.80;;
30571;SDS011;17348;50.948;10.696;2023-05-15T00:19:21;11.00;;;6.88;;
30571;SDS011;17348;50.948;10.696;2023-05-15T00:22:24;12.25;;;6.97;;
30571;SDS011;17348;50.948;10.696;2023-05-15T00:25:26;11.27;;;7.03;;
30571;SDS011;17348;50.948;10.696;2023-05-15T00:28:29;10.70;;;6.80;;
30571;SDS011;17348;50.948;10.696;2023-05-15T00:31:31;13.00;;;7.70;;
30571;SDS011;17348;50.948;10.696;2023-05-15T00:34:35;10.68;;;7.38;;
30571;SDS011;17348;50.948;10.696;2023-05-15T00:37:37;9.32;;;6.22;;
30571;SDS011;17348;50.948;10.696;2023-05-15T00:40:40;11.77;;;7.07;;
30571;SDS011;17348;50.948;10.696;2023-05-15T00:43:43;13.32;;;6.47;;
30571;SDS011;17348;50.948;10.696;2023-05-15T00:46:46;11.55;;;6.45;;
30571;SDS011;17348;50.948;10.696;2023-05-15T00:49:51;10.00;;;6.30;;
30571;SDS011;17348;50.948;10.696;2023-05-15T00:52:54;12.27;;;7.07;;
30571;SDS011;17348;50.948;10.696;2023-05-15T00:55:57;10.68;;;6.45;;
30571;SDS011;17348;50.948;10.696;2023-05-15T00:59:00;11.32;;;7.03;;
30571;SDS011;17348;50.948;10.696;2023-05-15T01:02:04;12.85;;;7.55;;
30571;SDS011;17348;50.948;10.696;2023-05-15T01:05:08;15.38;;;8.20;;
30571;SDS011;17348;50.948;10.696;2023-05-15T01:08:12;18.70;;;9.25;;
30571;SDS011;17348;50.948;10.696;2023-05-15T01:11:21;20.73;;;11.13;;
30571;SDS011;17348;50.948;10.696;2023-05-15T01:14:27;17.05;;;10.23;;
30571;SDS011;17348;50.948;10.696;2023-05-15T01:17:30;15.00;;;9.27;;
30571;SDS011;17348;50.948;10.696;2023-05-15T01:20:38;15.93;;;8.20;;
30571;SDS011;17348;50.948;10.696;2023-05-15T01:23:51;15.30;;;8.32;;
30571;SDS011;17348;50.948;10.696;2023-05-15T01:27:11;10.98;;;7.05;;
30571;SDS011;17348;50.948;10.696;2023-05-15T01:30:21;14.32;;;7.72;;
30571;SDS011;17348;50.948;10.696;2023-05-15T01:33:28;13.60;;;7.97;;
30571;SDS011;17348;50.948;10.696;2023-05-15T01:36:36;16.17;;;8.43;;
30571;SDS011;17348;50.948;10.696;2023-05-15T01:39:43;16.02;;;8.73;;
30571;SDS011;17348;50.948;10.696;2023-05-15T01:42:50;15.60;;;9.35;;
30571;SDS011;17348;50.948;10.696;2023-05-15T01:45:55;21.20;;;9.38;;
30571;SDS011;17348;50.948;10.696;2023-05-15T01:48:59;14.93;;;9.05;;
30571;SDS011;17348;50.948;10.696;2023-05-15T01:52:04;14.88;;;9.23;;
30571;SDS011;17348;50.948;10.696;2023-05-15T01:55:10;16.42;;;9.15;;
30571;SDS011;17348;50.948;10.696;2023-05-15T01:58:16;15.30;;;9.30;;
30571;SDS011;17348;50.948;10.696;2023-05-15T02:01:20;17.55;;;9.32;;
30571;SDS011;17348;50.948;10.696;2023-05-15T02:04:24;14.98;;;8.30;;
30571;SDS011;17348;50.948;10.696;2023-05-15T02:07:27;14.43;;;8.48;;
30571;SDS011;17348;50.948;10.696;2023-05-15T02:10:30;11.80;;;7.70;;
30571;SDS011;17348;50.948;10.696;2023-05-15T02:13:35;16.58;;;8.68;;
30571;SDS011;17348;50.948;10.696;2023-05-15T02:16:38;14.53;;;8.87;;
30571;SDS011;17348;50.948;10.696;2023-05-15T02:19:41;12.57;;;8.55;;
30571;SDS011;17348;50.948;10.696;2023-05-15T02:22:43;11.15;;;8.25;;
30571;SDS011;17348;50.948;10.696;2023-05-15T02:25:47;12.38;;;8.65;;
30571;SDS011;17348;50.948;10.696;2023-05-15T02:29:05;16.17;;;9.25;;
30571;SDS011;17348;50.948;10.696;2023-05-15T02:32:17;12.60;;;8.10;;
30571;SDS011;17348;50.948;10.696;2023-05-15T02:35:40;13.95;;;8.30;;
30571;SDS011;17348;50.948;10.696;2023-05-15T02:38:49;17.88;;;7.95;;
30571;SDS011;17348;50.948;10.696;2023-05-15T02:41:53;14.23;;;8.80;;
30571;SDS011;17348;50.948;10.696;2023-05-15T02:44:58;14.60;;;8.18;;
30571;SDS011;17348;50.948;10.696;2023-05-15T02:48:03;14.85;;;7.93;;
30571;SDS011;17348;50.948;10.696;2023-05-15T02:51:07;14.30;;;8.60;;
30571;SDS011;17348;50.948;10.696;2023-05-15T02:54:11;15.10;;;7.72;;
30571;SDS011;17348;50.948;10.696;2023-05-15T02:57:13;13.40;;;8.25;;
30571;SDS011;17348;50.948;10.696;2023-05-15T03:00:17;13.73;;;7.45;;
30571;SDS011;17348;50.948;10.696;2023-05-15T03:03:20;11.60;;;7.93;;
30571;SDS011;17348;50.948;10.696;2023-05-15T03:06:23;13.55;;;8.32;;
30571;SDS011;17348;50.948;10.696;2023-05-15T03:09:25;19.58;;;8.50;;
30571;SDS011;17348;50.948;10.696;2023-05-15T03:12:27;17.70;;;8.40;;
30571;SDS011;17348;50.948;10.696;2023-05-15T03:15:31;12.60;;;7.43;;
30571;SDS011;17348;50.948;10.696;2023-05-15T03:18:33;15.10;;;8.45;;
30571;SDS011;17348;50.948;10.696;2023-05-15T03:21:35;14.95;;;9.07;;
30571;SDS011;17348;50.948;10.696;2023-05-15T03:24:38;11.60;;;8.27;;
30571;SDS011;17348;50.948;10.696;2023-05-15T03:27:40;14.53;;;8.37;;
30571;SDS011;17348;50.948;10.696;2023-05-15T03:30:44;13.38;;;8.10;;
30571;SDS011;17348;50.948;10.696;2023-05-15T03:33:46;12.60;;;8.07;;
30571;SDS011;17348;50.948;10.696;2023-05-15T03:36:49;11.80;;;7.53;;
30571;SDS011;17348;50.948;10.696;2023-05-15T03:39:51;15.20;;;7.32;;
30571;SDS011;17348;50.948;10.696;2023-05-15T03:42:54;11.48;;;7.75;;
30571;SDS011;17348;50.948;10.696;2023-05-15T03:45:58;14.20;;;7.65;;
30571;SDS011;17348;50.948;10.696;2023-05-15T03:49:01;11.85;;;7.40;;
30571;SDS011;17348;50.948;10.696;2023-05-15T03:52:03;15.63;;;7.78;;
30571;SDS011;17348;50.948;10.696;2023-05-15T03:55:06;12.82;;;7.50;;
30571;SDS011;17348;50.948;10.696;2023-05-15T03:58:09;12.63;;;8.60;;
30571;SDS011;17348;50.948;10.696;2023-05-15T04:01:12;10.57;;;7.65;;
30571;SDS011;17348;50.948;10.696;2023-05-15T04:04:15;9.68;;;7.32;;
30571;SDS011;17348;50.948;10.696;2023-05-15T04:07:17;14.77;;;7.07;;
30571;SDS011;17348;50.948;10.696;2023-05-15T04:10:19;13.98;;;7.65;;
30571;SDS011;17348;50.948;10.696;2023-05-15T04:13:22;14.40;;;7.00;;
30571;SDS011;17348;50.948;10.696;2023-05-15T04:16:25;12.83;;;7.77;;
30571;SDS011;17348;50.948;10.696;2023-05-15T04:19:28;12.30;;;8.10;;
30571;SDS011;17348;50.948;10.696;2023-05-15T04:22:30;13.23;;;7.35;;
30571;SDS011;17348;50.948;10.696;2023-05-15T04:25:32;13.77;;;8.32;;
30571;SDS011;17348;50.948;10.696;2023-05-15T04:28:35;10.93;;;7.00;;
30571;SDS011;17348;50.948;10.696;2023-05-15T04:31:38;10.65;;;7.47;;
30571;SDS011;17348;50.948;10.696;2023-05-15T04:34:41;14.80;;;7.78;;
30571;SDS011;17348;50.948;10.696;2023-05-15T04:37:43;11.55;;;6.97;;
30571;SDS011;17348;50.948;10.696;2023-05-15T04:40:46;11.93;;;7.18;;
30571;SDS011;17348;50.948;10.696;2023-05-15T04:43:49;16.75;;;7.45;;
30571;SDS011;17348;50.948;10.696;2023-05-15T04:46:53;9.45;;;6.70;;
30571;SDS011;17348;50.948;10.696;2023-05-15T04:49:55;11.43;;;7.20;;
30571;SDS011;17348;50.948;10.696;2023-05-15T04:52:58;8.27;;;6.38;;
30571;SDS011;17348;50.948;10.696;2023-05-15T04:56:00;14.70;;;6.18;;
30571;SDS011;17348;50.948;10.696;2023-05-15T04:59:02;15.70;;;6.70;;
30571;SDS011;17348;50.948;10.696;2023-05-15T05:02:08;8.45;;;5.38;;
30571;SDS011;17348;50.948;10.696;2023-05-15T05:05:12;9.10;;;5.25;;
30571;SDS011;17348;50.948;10.696;2023-05-15T05:08:16;13.05;;;5.60;;
30571;SDS011;17348;50.948;10.696;2023-05-15T05:11:18;16.15;;;6.82;;
30571;SDS011;17348;50.948;10.696;2023-05-15T05:14:21;11.80;;;6.38;;
30571;SDS011;17348;50.948;10.696;2023-05-15T05:17:24;17.75;;;6.00;;
30571;SDS011;17348;50.948;10.696;2023-05-15T05:20:27;8.73;;;6.18;;
30571;SDS011;17348;50.948;10.696;2023-05-15T05:23:30;10.77;;;5.90;;
30571;SDS011;17348;50.948;10.696;2023-05-15T05:26:32;8.65;;;5.82;;
30571;SDS011;17348;50.948;10.696;2023-05-15T05:29:34;30.08;;;8.80;;
30571;SDS011;17348;50.948;10.696;2023-05-15T05:32:38;17.17;;;7.00;;
30571;SDS011;17348;50.948;10.696;2023-05-15T05:35:41;13.23;;;5.97;;
30571;SDS011;17348;50.948;10.696;2023-05-15T05:38:44;12.82;;;6.13;;
30571;SDS011;17348;50.948;10.696;2023-05-15T05:41:46;80.13;;;17.15;;
30571;SDS011;17348;50.948;10.696;2023-05-15T05:44:48;15.88;;;6.28;;
30571;SDS011;17348;50.948;10.696;2023-05-15T05:47:54;24.48;;;8.75;;
30571;SDS011;17348;50.948;10.696;2023-05-15T05:50:56;18.38;;;7.05;;
30571;SDS011;17348;50.948;10.696;2023-05-15T05:53:59;22.77;;;7.05;;
30571;SDS011;17348;50.948;10.696;2023-05-15T05:57:01;7.72;;;5.50;;
30571;SDS011;17348;50.948;10.696;2023-05-15T06:00:04;14.10;;;6.38;;
30571;SDS011;17348;50.948;10.696;2023-05-15T06:03:10;10.07;;;6.22;;
30571;SDS011;17348;50.948;10.696;2023-05-15T06:06:13;13.43;;;5.50;;
30571;SDS011;17348;50.948;10.696;2023-05-15T06:09:15;10.45;;;6.78;;
30571;SDS011;17348;50.948;10.696;2023-05-15T06:12:18;13.68;;;6.38;;
30571;SDS011;17348;50.948;10.696;2023-05-15T06:15:20;7.85;;;5.70;;
30571;SDS011;17348;50.948;10.696;2023-05-15T06:18:24;13.52;;;6.40;;
30571;SDS011;17348;50.948;10.696;2023-05-15T06:21:26;7.65;;;6.03;;
30571;SDS011;17348;50.948;10.696;2023-05-15T06:24:29;11.38;;;6.38;;
30571;SDS011;17348;50.948;10.696;2023-05-15T06:27:31;10.90;;;5.70;;
30571;SDS011;17348;50.948;10.696;2023-05-15T06:30:34;14.18;;;5.80;;
30571;SDS011;17348;50.948;10.696;2023-05-15T06:33:38;7.43;;;4.47;;
30571;SDS011;17348;50.948;10.696;2023-05-15T06:36:40;10.13;;;5.55;;
30571;SDS011;17348;50.948;10.696;2023-05-15T06:39:43;7.60;;;5.50;;
30571;SDS011;17348;50.948;10.696;2023-05-15T06:42:45;8.07;;;5.90;;
30571;SDS011;17348;50.948;10.696;2023-05-15T06:45:48;8.55;;;5.70;;
30571;SDS011;17348;50.948;10.696;2023-05-15T06:48:51;15.70;;;6.30;;
30571;SDS011;17348;50.948;10.696;2023-05-15T06:51:54;11.18;;;5.93;;
30571;SDS011;17348;50.948;10.696;2023-05-15T06:54:56;7.68;;;5.03;;
30571;SDS011;17348;50.948;10.696;2023-05-15T06:57:58;15.25;;;4.90;;
30571;SDS011;17348;50.948;10.696;2023-05-15T07:01:01;11.15;;;5.55;;
30571;SDS011;17348;50.948;10.696;2023-05-15T07:04:05;6.25;;;4.45;;
30571;SDS011;17348;50.948;10.696;2023-05-15T07:07:07;6.18;;;4.68;;
30571;SDS011;17348;50.948;10.696;2023-05-15T07:10:09;7.32;;;4.45;;
30571;SDS011;17348;50.948;10.696;2023-05-15T07:13:12;6.22;;;4.32;;
30571;SDS011;17348;50.948;10.696;2023-05-15T07:16:14;5.30;;;3.97;;
30571;SDS011;17348;50.948;10.696;2023-05-15T07:19:18;9.27;;;4.47;;
30571;SDS011;17348;50.948;10.696;2023-05-15T07:22:21;10.98;;;5.13;;
30571;SDS011;17348;50.948;10.696;2023-05-15T07:25:23;5.97;;;3.67;;
30571;SDS011;17348;50.948;10.696;2023-05-15T07:28:26;16.40;;;4.55;;
30571;SDS011;17348;50.948;10.696;2023-05-15T07:31:28;8.57;;;5.05;;
30571;SDS011;17348;50.948;10.696;2023-05-15T07:34:34;10.02;;;5.15;;
30571;SDS011;17348;50.948;10.696;2023-05-15T07:37:36;7.30;;;4.45;;
30571;SDS011;17348;50.948;10.696;2023-05-15T07:40:39;7.53;;;5.05;;
30571;SDS011;17348;50.948;10.696;2023-05-15T07:43:41;9.55;;;3.72;;
30571;SDS011;17348;50.948;10.696;2023-05-15T07:46:43;8.50;;;4.30;;
30571;SDS011;17348;50.948;10.696;2023-05-15T07:49:47;10.75;;;4.40;;
30571;SDS011;17348;50.948;10.696;2023-05-15T07:52:49;9.15;;;4.60;;
30571;SDS011;17348;50.948;10.696;2023-05-15T07:55:52;11.30;;;4.68;;
30571;SDS011;17348;50.948;10.696;2023-05-15T07:58:54;11.35;;;4.95;;
30571;SDS011;17348;50.948;10.696;2023-05-15T08:01:57;7.65;;;4.32;;
30571;SDS011;17348;50.948;10.696;2023-05-15T08:05:00;15.88;;;4.18;;
30571;SDS011;17348;50.948;10.696;2023-05-15T08:08:03;11.55;;;4.72;;
30571;SDS011;17348;50.948;10.696;2023-05-15T08:11:05;11.23;;;4.93;;
30571;SDS011;17348;50.948;10.696;2023-05-15T08:14:07;7.38;;;4.93;;
30571;SDS011;17348;50.948;10.696;2023-05-15T08:17:10;11.55;;;4.07;;
30571;SDS011;17348;50.948;10.696;2023-05-15T08:20:14;6.45;;;4.57;;
30571;SDS011;17348;50.948;10.696;2023-05-15T08:23:18;5.75;;;4.15;;
30571;SDS011;17348;50.948;10.696;2023-05-15T08:26:20;8.02;;;4.53;;
30571;SDS011;17348;50.948;10.696;2023-05-15T08:29:22;8.40;;;5.03;;
30571;SDS011;17348;50.948;10.696;2023-05-15T08:32:24;7.22;;;4.78;;
30571;SDS011;17348;50.948;10.696;2023-05-15T08:35:28;9.82;;;3.95;;
30571;SDS011;17348;50.948;10.696;2023-05-15T08:38:30;9.27;;;3.80;;
30571;SDS011;17348;50.948;10.696;2023-05-15T08:41:35;6.10;;;3.63;;
30571;SDS011;17348;50.948;10.696;2023-05-15T08:44:41;7.40;;;4.50;;
30571;SDS011;17348;50.948;10.696;2023-05-15T08:47:45;4.38;;;3.10;;
30571;SDS011;17348;50.948;10.696;2023-05-15T08:50:49;4.22;;;3.05;;
30571;SDS011;17348;50.948;10.696;2023-05-15T08:53:52;5.82;;;2.92;;
30571;SDS011;17348;50.948;10.696;2023-05-15T08:56:54;7.13;;;3.58;;
30571;SDS011;17348;50.948;10.696;2023-05-15T08:59:57;9.10;;;3.30;;
30571;SDS011;17348;50.948;10.696;2023-05-15T09:03:00;8.63;;;3.60;;
30571;SDS011;17348;50.948;10.696;2023-05-15T09:06:06;6.30;;;3.30;;
30571;SDS011;17348;50.948;10.696;2023-05-15T09:09:10;7.22;;;4.65;;
30571;SDS011;17348;50.948;10.696;2023-05-15T09:12:14;4.28;;;3.58;;
30571;SDS011;17348;50.948;10.696;2023-05-15T09:15:17;7.50;;;3.75;;
30571;SDS011;17348;50.948;10.696;2023-05-15T09:18:21;8.63;;;4.28;;
30571;SDS011;17348;50.948;10.696;2023-05-15T09:21:26;5.55;;;3.72;;
30571;SDS011;17348;50.948;10.696;2023-05-15T09:24:29;10.55;;;3.80;;
30571;SDS011;17348;50.948;10.696;2023-05-15T09:27:39;9.45;;;4.30;;
30571;SDS011;17348;50.948;10.696;2023-05-15T09:30:43;7.15;;;4.28;;
30571;SDS011;17348;50.948;10.696;2023-05-15T09:33:45;5.38;;;3.88;;
30571;SDS011;17348;50.948;10.696;2023-05-15T09:36:49;6.85;;;3.90;;
30571;SDS011;17348;50.948;10.696;2023-05-15T09:39:51;8.93;;;3.58;;
30571;SDS011;17348;50.948;10.696;2023-05-15T09:42:54;6.90;;;4.10;;
30571;SDS011;17348;50.948;10.696;2023-05-15T09:45:56;6.25;;;4.28;;
30571;SDS011;17348;50.948;10.696;2023-05-15T09:48:58;5.95;;;3.80;;
30571;SDS011;17348;50.948;10.696;2023-05-15T09:52:02;8.98;;;3.67;;
30571;SDS011;17348;50.948;10.696;2023-05-15T09:55:08;7.22;;;4.32;;
30571;SDS011;17348;50.948;10.696;2023-05-15T09:58:16;12.32;;;3.67;;
30571;SDS011;17348;50.948;10.696;2023-05-15T10:01:20;16.23;;;4.82;;
30571;SDS011;17348;50.948;10.696;2023-05-15T10:04:23;9.30;;;3.67;;
30571;SDS011;17348;50.948;10.696;2023-05-15T10:07:28;10.73;;;4.57;;
30571;SDS011;17348;50.948;10.696;2023-05-15T10:10:31;6.70;;;3.90;;
30571;SDS011;17348;50.948;10.696;2023-05-15T10:13:34;7.40;;;3.83;;
30571;SDS011;17348;50.948;10.696;2023-05-15T10:16:37;10.02;;;3.90;;
30571;SDS011;17348;50.948;10.696;2023-05-15T10:19:40;12.52;;;3.80;;
30571;SDS011;17348;50.948;10.696;2023-05-15T10:22:45;8.05;;;3.10;;
30571;SDS011;17348;50.948;10.696;2023-05-15T10:25:52;8.02;;;3.60;;
30571;SDS011;17348;50.948;10.696;2023-05-15T10:29:04;5.15;;;3.38;;
30571;SDS011;17348;50.948;10.696;2023-05-15T10:32:07;6.20;;;3.47;;
30571;SDS011;17348;50.948;10.696;2023-05-15T10:35:10;7.18;;;3.95;;
30571;SDS011;17348;50.948;10.696;2023-05-15T10:38:14;8.30;;;3.78;;
30571;SDS011;17348;50.948;10.696;2023-05-15T10:41:17;8.02;;;3.70;;
30571;SDS011;17348;50.948;10.696;2023-05-15T10:44:22;9.82;;;3.17;;
30571;SDS011;17348;50.948;10.696;2023-05-15T10:47:24;12.48;;;3.65;;
30571;SDS011;17348;50.948;10.696;2023-05-15T10:50:27;7.70;;;3.80;;
30571;SDS011;17348;50.948;10.696;2023-05-15T10:53:31;5.13;;;3.65;;
30571;SDS011;17348;50.948;10.696;2023-05-15T10:56:36;4.78;;;3.28;;
30571;SDS011;17348;50.948;10.696;2023-05-15T10:59:39;7.90;;;3.70;;
30571;SDS011;17348;50.948;10.696;2023-05-15T11:02:43;8.88;;;3.90;;
30571;SDS011;17348;50.948;10.696;2023-05-15T11:12:55;13.98;;;4.10;;
30571;SDS011;17348;50.948;10.696;2023-05-15T11:15:58;9.13;;;3.63;;
30571;SDS011;17348;50.948;10.696;2023-05-15T11:19:01;4.82;;;3.45;;
30571;SDS011;17348;50.948;10.696;2023-05-15T11:22:16;8.60;;;3.78;;
30571;SDS011;17348;50.948;10.696;2023-05-15T11:25:21;10.73;;;3.60;;
30571;SDS011;17348;50.948;10.696;2023-05-15T11:28:30;10.02;;;4.20;;
30571;SDS011;17348;50.948;10.696;2023-05-15T11:31:43;10.77;;;3.88;;
30571;SDS011;17348;50.948;10.696;2023-05-15T11:34:45;12.10;;;3.63;;
30571;SDS011;17348;50.948;10.696;2023-05-15T11:37:51;15.02;;;3.50;;
30571;SDS011;17348;50.948;10.696;2023-05-15T11:40:56;12.93;;;3.60;;
30571;SDS011;17348;50.948;10.696;2023-05-15T11:44:02;6.95;;;3.65;;
30571;SDS011;17348;50.948;10.696;2023-05-15T11:47:07;7.05;;;3.70;;
30571;SDS011;17348;50.948;10.696;2023-05-15T11:50:10;10.60;;;3.80;;
30571;SDS011;17348;50.948;10.696;2023-05-15T11:53:13;6.13;;;3.92;;
30571;SDS011;17348;50.948;10.696;2023-05-15T11:56:18;7.78;;;4.25;;
30571;SDS011;17348;50.948;10.696;2023-05-15T11:59:22;9.18;;;4.00;;
30571;SDS011;17348;50.948;10.696;2023-05-15T12:02:28;10.40;;;3.92;;
30571;SDS011;17348;50.948;10.696;2023-05-15T12:05:30;5.53;;;3.80;;
30571;SDS011;17348;50.948;10.696;2023-05-15T12:08:33;6.57;;;3.53;;
30571;SDS011;17348;50.948;10.696;2023-05-15T12:11:38;8.25;;;3.65;;
30571;SDS011;17348;50.948;10.696;2023-05-15T12:14:40;13.25;;;4.25;;
30571;SDS011;17348;50.948;10.696;2023-05-15T12:17:43;7.78;;;3.65;;
30571;SDS011;17348;50.948;10.696;2023-05-15T12:20:46;5.75;;;3.38;;
30571;SDS011;17348;50.948;10.696;2023-05-15T12:23:49;6.07;;;3.50;;
30571;SDS011;17348;50.948;10.696;2023-05-15T12:26:54;10.18;;;4.03;;
30571;SDS011;17348;50.948;10.696;2023-05-15T12:29:57;5.25;;;3.10;;
30571;SDS011;17348;50.948;10.696;2023-05-15T12:33:00;6.63;;;3.53;;
30571;SDS011;17348;50.948;10.696;2023-05-15T12:36:04;7.65;;;3.85;;
30571;SDS011;17348;50.948;10.696;2023-05-15T12:39:07;6.68;;;3.60;;
30571;SDS011;17348;50.948;10.696;2023-05-15T12:42:12;7.47;;;3.40;;
30571;SDS011;17348;50.948;10.696;2023-05-15T12:45:16;9.23;;;3.45;;
30571;SDS011;17348;50.948;10.696;2023-05-15T12:48:19;6.80;;;4.00;;
30571;SDS011;17348;50.948;10.696;2023-05-15T12:51:22;7.80;;;3.78;;
30571;SDS011;17348;50.948;10.696;2023-05-15T12:54:24;12.00;;;3.78;;
30571;SDS011;17348;50.948;10.696;2023-05-15T12:57:28;10.27;;;4.00;;
30571;SDS011;17348;50.948;10.696;2023-05-15T13:00:30;6.65;;;3.85;;
30571;SDS011;17348;50.948;10.696;2023-05-15T13:03:35;11.52;;;4.35;;
30571;SDS011;17348;50.948;10.696;2023-05-15T13:06:37;9.57;;;3.60;;
30571;SDS011;17348;50.948;10.696;2023-05-15T13:09:40;5.22;;;3.75;;
30571;SDS011;17348;50.948;10.696;2023-05-15T13:12:44;7.88;;;3.70;;
30571;SDS011;17348;50.948;10.696;2023-05-15T13:15:47;8.95;;;3.50;;
30571;SDS011;17348;50.948;10.696;2023-05-15T13:18:50;14.43;;;3.80;;
30571;SDS011;17348;50.948;10.696;2023-05-15T13:21:52;6.53;;;3.58;;
30571;SDS011;17348;50.948;10.696;2023-05-15T13:24:55;9.43;;;3.38;;
30571;SDS011;17348;50.948;10.696;2023-05-15T13:27:59;9.07;;;3.25;;
30571;SDS011;17348;50.948;10.696;2023-05-15T13:31:03;11.88;;;3.78;;
30571;SDS011;17348;50.948;10.696;2023-05-15T13:34:05;8.43;;;3.28;;
30571;SDS011;17348;50.948;10.696;2023-05-15T13:37:08;5.47;;;3.47;;
30571;SDS011;17348;50.948;10.696;2023-05-15T13:40:11;7.07;;;3.53;;
30571;SDS011;17348;50.948;10.696;2023-05-15T13:43:15;11.63;;;3.70;;
30571;SDS011;17348;50.948;10.696;2023-05-15T13:46:17;5.50;;;3.30;;
30571;SDS011;17348;50.948;10.696;2023-05-15T13:49:20;5.65;;;3.42;;
30571;SDS011;17348;50.948;10.696;2023-05-15T13:52:22;3.92;;;3.10;;
30571;SDS011;17348;50.948;10.696;2023-05-15T13:55:24;8.77;;;3.47;;
30571;SDS011;17348;50.948;10.696;2023-05-15T13:58:28;6.00;;;3.47;;
30571;SDS011;17348;50.948;10.696;2023-05-15T14:01:30;7.90;;;3.50;;
30571;SDS011;17348;50.948;10.696;2023-05-15T14:04:33;7.60;;;3.40;;
30571;SDS011;17348;50.948;10.696;2023-05-15T14:07:35;8.32;;;3.45;;
30571;SDS011;17348;50.948;10.696;2023-05-15T14:10:37;16.00;;;3.33;;
30571;SDS011;17348;50.948;10.696;2023-05-15T14:13:41;7.35;;;3.40;;
30571;SDS011;17348;50.948;10.696;2023-05-15T14:16:43;9.73;;;3.50;;
30571;SDS011;17348;50.948;10.696;2023-05-15T14:19:46;5.88;;;3.38;;
30571;SDS011;17348;50.948;10.696;2023-05-15T14:22:48;10.07;;;3.45;;
30571;SDS011;17348;50.948;10.696;2023-05-15T14:25:51;8.77;;;3.50;;
30571;SDS011;17348;50.948;10.696;2023-05-15T14:28:54;8.90;;;3.63;;
30571;SDS011;17348;50.948;10.696;2023-05-15T14:31:57;6.57;;;3.30;;
30571;SDS011;17348;50.948;10.696;2023-05-15T14:34:59;13.40;;;3.53;;
30571;SDS011;17348;50.948;10.696;2023-05-15T14:38:02;7.30;;;3.35;;
30571;SDS011;17348;50.948;10.696;2023-05-15T14:41:04;12.63;;;4.00;;
30571;SDS011;17348;50.948;10.696;2023-05-15T14:44:08;6.53;;;3.45;;
30571;SDS011;17348;50.948;10.696;2023-05-15T14:47:11;5.28;;;3.40;;
30571;SDS011;17348;50.948;10.696;2023-05-15T14:50:14;11.63;;;3.67;;
30571;SDS011;17348;50.948;10.696;2023-05-15T14:53:16;7.35;;;3.35;;
30571;SDS011;17348;50.948;10.696;2023-05-15T14:56:18;9.48;;;3.45;;
30571;SDS011;17348;50.948;10.696;2023-05-15T14:59:23;6.30;;;3.65;;
30571;SDS011;17348;50.948;10.696;2023-05-15T15:02:25;17.98;;;3.95;;
30571;SDS011;17348;50.948;10.696;2023-05-15T15:05:28;9.18;;;4.13;;
30571;SDS011;17348;50.948;10.696;2023-05-15T15:08:30;6.03;;;3.70;;
30571;SDS011;17348;50.948;10.696;2023-05-15T15:11:32;12.75;;;4.03;;
30571;SDS011;17348;50.948;10.696;2023-05-15T15:14:37;6.95;;;3.65;;
30571;SDS011;17348;50.948;10.696;2023-05-15T15:17:39;7.45;;;3.75;;
30571;SDS011;17348;50.948;10.696;2023-05-15T15:20:41;6.68;;;3.35;;
30571;SDS011;17348;50.948;10.696;2023-05-15T15:23:44;7.70;;;3.58;;
30571;SDS011;17348;50.948;10.696;2023-05-15T15:26:47;9.60;;;3.67;;
30571;SDS011;17348;50.948;10.696;2023-05-15T15:29:51;5.10;;;3.35;;
30571;SDS011;17348;50.948;10.696;2023-05-15T15:32:54;8.52;;;3.30;;
30571;SDS011;17348;50.948;10.696;2023-05-15T15:35:56;8.18;;;3.95;;
30571;SDS011;17348;50.948;10.696;2023-05-15T15:38:58;10.80;;;3.38;;
30571;SDS011;17348;50.948;10.696;2023-05-15T15:42:01;8.88;;;3.75;;
30571;SDS011;17348;50.948;10.696;2023-05-15T15:45:05;9.85;;;4.10;;
30571;SDS011;17348;50.948;10.696;2023-05-15T15:48:08;7.90;;;4.75;;
30571;SDS011;17348;50.948;10.696;2023-05-15T15:51:10;16.38;;;4.15;;
30571;SDS011;17348;50.948;10.696;2023-05-15T15:54:12;11.52;;;4.43;;
30571;SDS011;17348;50.948;10.696;2023-05-15T15:57:15;9.98;;;5.15;;
30571;SDS011;17348;50.948;10.696;2023-05-15T16:00:19;7.28;;;4.43;;
30571;SDS011;17348;50.948;10.696;2023-05-15T16:03:22;11.13;;;4.45;;
30571;SDS011;17348;50.948;10.696;2023-05-15T16:06:24;8.13;;;3.78;;
30571;SDS011;17348;50.948;10.696;2023-05-15T16:09:26;6.60;;;3.72;;
30571;SDS011;17348;50.948;10.696;2023-05-15T16:12:29;7.43;;;4.00;;
30571;SDS011;17348;50.948;10.696;2023-05-15T16:15:33;4.85;;;3.28;;
30571;SDS011;17348;50.948;10.696;2023-05-15T16:18:35;5.53;;;3.30;;
30571;SDS011;17348;50.948;10.696;2023-05-15T16:21:37;4.32;;;3.15;;
30571;SDS011;17348;50.948;10.696;2023-05-15T16:24:40;5.88;;;3.35;;
30571;SDS011;17348;50.948;10.696;2023-05-15T16:27:42;4.72;;;3.38;;
30571;SDS011;17348;50.948;10.696;2023-05-15T16:30:47;7.15;;;3.38;;
30571;SDS011;17348;50.948;10.696;2023-05-15T16:33:50;5.50;;;3.25;;
30571;SDS011;17348;50.948;10.696;2023-05-15T16:36:52;7.53;;;4.03;;
30571;SDS011;17348;50.948;10.696;2023-05-15T16:39:54;6.18;;;3.38;;
30571;SDS011;17348;50.948;10.696;2023-05-15T16:42:57;8.65;;;3.63;;
30571;SDS011;17348;50.948;10.696;2023-05-15T16:46:01;4.45;;;3.17;;
30571;SDS011;17348;50.948;10.696;2023-05-15T16:49:03;4.85;;;3.33;;
30571;SDS011;17348;50.948;10.696;2023-05-15T16:52:06;6.25;;;3.47;;
30571;SDS011;17348;50.948;10.696;2023-05-15T16:55:09;8.05;;;3.70;;
30571;SDS011;17348;50.948;10.696;2023-05-15T16:58:13;4.13;;;3.45;;
30571;SDS011;17348;50.948;10.696;2023-05-15T17:01:18;4.90;;;3.42;;
30571;SDS011;17348;50.948;10.696;2023-05-15T17:04:20;8.32;;;3.58;;
30571;SDS011;17348;50.948;10.696;2023-05-15T17:07:23;4.50;;;2.92;;
30571;SDS011;17348;50.948;10.696;2023-05-15T17:10:25;6.10;;;2.90;;
30571;SDS011;17348;50.948;10.696;2023-05-15T17:13:28;7.55;;;3.33;;
30571;SDS011;17348;50.948;10.696;2023-05-15T17:16:32;5.50;;;3.15;;
30571;SDS011;17348;50.948;10.696;2023-05-15T17:19:35;5.28;;;3.00;;
30571;SDS011;17348;50.948;10.696;2023-05-15T17:22:38;4.35;;;2.80;;
30571;SDS011;17348;50.948;10.696;2023-05-15T17:25:41;4.75;;;3.05;;
30571;SDS011;17348;50.948;10.696;2023-05-15T17:28:43;6.30;;;3.10;;
30571;SDS011;17348;50.948;10.696;2023-05-15T17:31:47;5.05;;;3.25;;
30571;SDS011;17348;50.948;10.696;2023-05-15T17:34:50;6.53;;;3.05;;
30571;SDS011;17348;50.948;10.696;2023-05-15T17:37:52;5.75;;;3.22;;
30571;SDS011;17348;50.948;10.696;2023-05-15T17:40:55;6.68;;;3.25;;
30571;SDS011;17348;50.948;10.696;2023-05-15T17:43:57;3.72;;;2.92;;
30571;SDS011;17348;50.948;10.696;2023-05-15T17:47:01;7.60;;;3.60;;
30571;SDS011;17348;50.948;10.696;2023-05-15T17:50:04;4.57;;;2.92;;
30571;SDS011;17348;50.948;10.696;2023-05-15T17:53:08;10.40;;;3.40;;
30571;SDS011;17348;50.948;10.696;2023-05-15T17:56:11;6.32;;;3.10;;
30571;SDS011;17348;50.948;10.696;2023-05-15T17:59:14;3.92;;;2.83;;
30571;SDS011;17348;50.948;10.696;2023-05-15T18:02:18;5.00;;;3.13;;
30571;SDS011;17348;50.948;10.696;2023-05-15T18:05:20;11.90;;;4.07;;
30571;SDS011;17348;50.948;10.696;2023-05-15T18:08:22;4.78;;;2.78;;